Latest Weather Observations for Woomera

IDS60801

Issued at 1:33 am CST Sunday 24 September 2017 (issued every 30 minutes, with the page automatically refreshed every 10 minutes)

About weather observations | Map of weather stations | Latest weather observations for SA | Other Formats
Station Details ID: 016001 Name: WOOMERA AERODROME Lat: -31.16 Lon: 136.81 Height: 166.6 m
Data from the previous 72 hours. | See also: Recent months at Woomera
Date/Time
CST
Temp
°C
App
Temp
°C
Dew
Point
°C
Rel
Hum
%
Delta-T
°C
Wind Press
QNH
hPa
Press
MSL
hPa
Rain since
9am
mm
Dir  Spd
km/h
Gust
km/h
Spd
kts
Gust
kts
24/01:30am 14.8 8.6 2.4 43 5.6 SW 24 32 13 17 1008.4 1008.2 0.0
24/01:00am 15.0 9.2 2.2 42 5.7 SSW 22 26 12 14 1008.4 1008.2 0.0
24/12:30am 15.6 9.8 2.4 41 6.0 SW 22 28 12 15 1008.3 1008.1 0.0
24/12:00am 16.0 11.0 3.4 43 5.8 SSW 19 24 10 13 1008.1 1007.9 0.0
 
Date/Time
CST
Temp
°C
App
Temp
°C
Dew
Point
°C
Rel
Hum
%
Delta-T
°C
Wind Press
QNH
hPa
Press
MSL
hPa
Rain since
9am
mm
Dir  Spd
km/h
Gust
km/h
Spd
kts
Gust
kts
23/11:30pm 16.1 11.4 3.2 42 6.0 SSW 17 22 9 12 1007.7 1007.4 0.0
23/11:00pm 16.5 12.2 3.2 41 6.1 S 15 19 8 10 1007.7 1007.4 0.0
23/10:30pm 17.5 12.5 3.4 39 6.6 S 19 22 10 12 1007.8 1007.5 0.0
23/10:00pm 17.3 12.9 2.9 38 6.7 S 15 19 8 10 1007.9 1007.6 0.0
23/09:30pm 17.4 12.1 -0.3 30 7.7 S 17 20 9 11 1007.8 1007.5 0.0
23/09:00pm 17.8 14.1 -3.0 24 8.6 SW 7 9 4 5 1007.7 1007.4 0.0
23/08:30pm 18.4 14.0 -2.5 24 8.7 WSW 11 13 6 7 1007.4 1007.1 0.0
23/08:00pm 19.3 14.8 -2.9 22 9.3 W 11 13 6 7 1007.2 1006.9 0.0
23/07:30pm 20.4 15.6 -2.6 21 9.8 WSW 13 17 7 9 1006.8 1006.5 0.0
23/07:00pm 22.0 16.0 -2.7 19 10.6 WSW 19 24 10 13 1006.2 1005.9 0.0
23/06:30pm 23.3 15.7 -2.3 18 11.3 WSW 28 35 15 19 1005.6 1005.3 0.0
23/06:00pm 24.2 15.9 -1.6 18 11.6 WSW 32 41 17 22 1005.1 1004.8 0.0
23/05:30pm 25.2 16.2 0.0 19 11.8 WSW 37 48 20 26 1004.6 1004.4 0.0
23/05:00pm 26.0 16.6 -0.1 18 12.2 W 39 50 21 27 1004.4 1004.2 0.0
23/04:30pm 26.8 17.6 1.3 19 12.3 W 39 54 21 29 1004.0 1003.8 0.0
23/04:12pm 27.1 18.3 1.5 19 12.4 W 37 56 20 30 1003.8 1003.6 0.0
23/04:00pm 27.3 18.2 1.7 19 12.5 WNW 39 54 21 29 1003.8 1003.6 0.0
23/03:37pm 27.2 17.2 2.3 20 12.2 W 44 72 24 39 1003.8 1003.6 0.0
23/03:30pm 27.4 17.9 1.8 19 12.5 W 41 57 22 31 1003.8 1003.6 0.0
23/03:00pm 27.5 17.4 1.8 19 12.6 W 44 65 24 35 1003.9 1003.7 0.0
23/02:30pm 27.3 18.4 0.9 18 12.7 W 37 57 20 31 1004.1 1003.9 0.0
23/02:16pm 27.4 18.9 1.0 18 12.7 W 35 54 19 29 1004.1 1003.9 0.0
23/02:00pm 27.3 18.0 0.9 18 12.7 W 39 50 21 27 1004.3 1004.1 0.0
23/01:30pm 26.9 17.7 1.3 19 12.4 W 39 57 21 31 1004.3 1004.1 0.0
23/01:07pm 26.6 16.4 1.1 19 12.2 W 44 63 24 34 1004.5 1004.3 0.0
23/01:00pm 26.8 15.9 1.3 19 12.3 W 48 63 26 34 1004.5 1004.3 0.0
23/12:30pm 26.9 15.9 0.6 18 12.6 W 48 65 26 35 1004.6 1004.4 0.0
23/12:02pm 26.5 15.8 0.3 18 12.4 W 46 67 25 36 1004.5 1004.3 0.0
23/12:00pm 26.7 16.0 0.4 18 12.5 W 46 59 25 32 1004.6 1004.4 0.0
23/11:30am 26.4 16.6 3.6 23 11.4 W 44 61 24 33 1004.6 1004.4 0.0
23/11:00am 26.4 17.2 3.6 23 11.4 W 41 54 22 29 1004.6 1004.4 0.0
23/10:30am 25.7 16.4 4.8 26 10.7 WSW 43 56 23 30 1004.7 1004.5 0.0
23/10:00am 24.4 15.2 6.2 31 9.4 WSW 44 56 24 30 1004.7 1004.5 0.0
23/09:30am 23.1 13.0 7.6 37 8.2 WSW 50 63 27 34 1004.8 1004.6 0.0
23/09:00am 23.0 13.6 7.1 36 8.3 WSW 46 56 25 30 1004.3 1004.1 0.0
23/08:30am 23.2 13.5 5.6 32 9.0 WSW 46 59 25 32 1003.8 1003.6 0.0
23/08:00am 23.7 13.2 3.6 27 9.9 WSW 48 61 26 33 1003.0 1002.8 0.0
23/07:30am 23.9 15.2 -0.4 20 11.1 W 35 46 19 25 1002.4 1002.1 0.0
23/07:00am 23.6 15.2 -1.3 19 11.1 W 33 41 18 22 1001.6 1001.3 0.0
23/06:30am 20.7 13.8 -2.4 21 9.9 WNW 24 32 13 17 1000.9 1000.6 0.0
23/06:00am 20.5 13.2 -2.5 21 9.9 NW 26 32 14 17 1000.5 1000.2 0.0
23/05:30am 19.8 12.5 -2.5 22 9.5 NNW 26 33 14 18 999.7 999.4 0.0
23/05:00am 19.9 12.3 -2.4 22 9.5 NNW 28 32 15 17 999.5 999.2 0.0
23/04:30am 20.5 12.9 -2.5 21 9.9 NNW 28 32 15 17 999.3 999.0 0.0
23/04:00am 19.6 13.5 -2.7 22 9.4 N 20 24 11 13 999.3 999.0 0.0
23/03:30am 20.4 13.9 -2.6 21 9.8 N 22 28 12 15 999.3 999.0 0.0
23/03:00am 20.9 14.8 -2.2 21 10.0 N 20 26 11 14 999.5 999.2 0.0
23/02:30am 22.0 15.1 -2.7 19 10.7 N 24 30 13 16 1000.0 999.7 0.0
23/02:00am 21.8 15.6 -2.8 19 10.5 N 20 24 11 13 1000.6 1000.3 0.0
23/01:30am 22.5 16.3 -3.0 18 11.0 N 20 22 11 12 1001.3 1001.0 0.0
23/01:00am 22.6 16.7 -2.2 19 10.8 N 19 20 10 11 1001.5 1001.2 0.0
23/12:30am 21.9 16.3 -2.7 19 10.6 N 17 20 9 11 1002.0 1001.7 0.0
23/12:00am 21.2 15.9 -3.3 19 10.4 N 15 17 8 9 1002.4 1002.1 0.0
 
Date/Time
CST
Temp
°C
App
Temp
°C
Dew
Point
°C
Rel
Hum
%
Delta-T
°C
Wind Press
QNH
hPa
Press
MSL
hPa
Rain since
9am
mm
Dir  Spd
km/h
Gust
km/h
Spd
kts
Gust
kts
22/11:30pm 21.6 16.3 -3.7 18 10.7 N 15 17 8 9 1002.7 1002.4 0.0
22/11:00pm 21.7 16.9 -2.9 19 10.5 N 13 17 7 9 1002.8 1002.5 0.0
22/10:30pm 23.0 18.8 -4.1 16 11.5 N 9 11 5 6 1003.0 1002.8 0.0
22/10:00pm 25.2 21.1 -3.2 15 12.4 NW 9 9 5 5 1003.3 1003.1 0.0
22/09:30pm 25.5 21.4 -3.0 15 12.6 WNW 9 11 5 6 1003.5 1003.3 0.0
22/09:00pm 25.3 21.2 -3.2 15 12.5 W 9 11 5 6 1003.7 1003.5 0.0
22/08:30pm 26.5 22.0 -3.1 14 13.2 W 11 15 6 8 1003.6 1003.4 0.0
22/08:00pm 27.2 21.5 -3.6 13 13.6 WNW 17 20 9 11 1003.5 1003.3 0.0
22/07:30pm 28.9 22.7 -3.3 12 14.6 NW 20 24 11 13 1003.2 1003.0 0.0
22/07:00pm 30.4 23.8 -3.3 11 15.4 NW 22 26 12 14 1002.9 1002.6 0.0
22/06:30pm 32.3 24.2 -3.2 10 16.5 NW 30 37 16 20 1002.7 1002.4 0.0
22/06:00pm 33.7 25.0 -3.5 9 17.4 NW 33 48 18 26 1002.4 1002.1 0.0
22/05:56pm 33.8 25.7 -3.5 9 17.4 NW 30 48 16 26 1002.4 1002.1 0.0
22/05:30pm 34.5 25.5 -2.9 9 17.8 WNW 35 46 19 25 1002.4 1002.1 0.0
22/05:13pm 34.8 25.8 -2.7 9 17.8 NW 35 54 19 29 1002.4 1002.1 0.0
22/05:00pm 35.2 25.9 -2.4 9 18.0 WNW 37 52 20 28 1002.4 1002.1 0.0
22/04:34pm 35.7 26.0 -2.0 9 18.2 NW 39 57 21 31 1002.4 1002.1 0.0
22/04:30pm 35.6 26.7 -2.1 9 18.3 NW 35 46 19 25 1002.4 1002.1 0.0
22/04:02pm 35.6 26.7 -2.1 9 18.2 NW 35 54 19 29 1002.7 1002.4 0.0
22/04:00pm 36.0 26.4 -1.8 9 18.4 NW 39 54 21 29 1002.8 1002.5 0.0
22/03:39pm 35.8 27.5 -2.0 9 18.3 NW 32 50 17 27 1002.8 1002.5 0.0
22/03:30pm 35.3 26.9 -2.3 9 18.1 NW 32 43 17 23 1003.0 1002.8 0.0
22/03:00pm 35.9 28.3 -1.9 9 18.4 NW 28 39 15 21 1003.3 1003.1 0.0
22/02:43pm 36.2 28.7 -1.7 9 18.5 NW 28 54 15 29 1003.5 1003.3 0.0
22/02:30pm 35.7 28.5 -2.0 9 18.3 NNW 26 41 14 22 1003.9 1003.7 0.0
22/02:01pm 35.7 27.7 -2.0 9 18.2 NW 30 54 16 29 1004.3 1004.1 0.0
22/02:00pm 35.4 27.8 -2.3 9 18.1 NW 28 44 15 24 1004.4 1004.2 0.0
22/01:48pm 35.3 27.1 -0.9 10 17.8 NW 32 50 17 27 1004.7 1004.5 0.0
22/01:30pm 34.7 26.8 -1.4 10 17.6 WNW 30 43 16 23 1005.0 1004.7 0.0
22/01:00pm 35.5 27.7 -0.8 10 17.9 NW 30 46 16 25 1005.4 1005.1 0.0
22/12:30pm 34.9 27.4 -1.2 10 17.7 NNW 28 41 15 22 1006.0 1005.7 0.0
22/12:00pm 34.4 27.4 -0.3 11 17.2 NW 26 43 14 23 1006.4 1006.1 0.0
22/11:30am 33.1 26.9 -0.1 12 16.3 NW 22 30 12 16 1007.0 1006.7 0.0
22/11:00am 31.6 26.0 0.9 14 15.2 NNW 20 28 11 15 1007.3 1007.0 0.0
22/10:30am 29.4 23.8 1.0 16 13.9 N 20 26 11 14 1007.6 1007.3 0.0
22/10:00am 27.7 21.6 0.5 17 13.0 N 22 28 12 15 1007.9 1007.6 0.0
22/09:30am 26.0 20.5 0.6 19 12.0 N 19 24 10 13 1008.4 1008.2 0.0
22/09:00am 23.7 19.2 2.0 24 10.4 NNE 15 17 8 9 1008.5 1008.3 0.0
22/08:30am 21.0 17.6 4.1 33 8.2 NE 11 15 6 8 1008.4 1008.2 0.0
22/08:00am 18.4 15.6 5.3 42 6.4 E 9 13 5 7 1008.0 1007.7 0.0
22/07:30am 15.7 12.3 5.9 52 4.8 E 13 17 7 9 1007.7 1007.4 0.0
22/07:00am 14.1 10.4 6.2 59 3.8 E 15 15 8 8 1007.9 1007.6 0.0
22/06:30am 13.2 8.6 6.5 64 3.2 ESE 20 24 11 13 1007.3 1007.0 0.0
22/06:00am 12.1 9.4 5.7 65 3.0 SE 9 13 5 7 1007.7 1007.4 0.0
22/05:30am 11.5 8.7 5.2 65 2.9 SSE 9 13 5 7 1007.9 1007.6 0.0
22/05:00am 11.4 8.6 5.1 65 2.9 SSW 9 13 5 7 1007.7 1007.4 0.0
22/04:30am 11.8 9.5 4.8 62 3.2 SSE 6 11 3 6 1007.4 1007.1 0.0
22/04:00am 13.2 10.6 5.9 61 3.5 SE 9 11 5 6 1007.5 1007.2 0.0
22/03:30am 13.4 10.8 6.3 62 3.4 S 9 11 5 6 1007.7 1007.4 0.0
22/03:00am 14.0 10.3 6.1 59 3.8 ESE 15 17 8 9 1007.9 1007.6 0.0
22/02:30am 15.3 10.3 6.6 56 4.3 E 22 28 12 15 1008.0 1007.7 0.0
22/02:00am 16.0 11.1 7.0 55 4.5 ESE 22 28 12 15 1007.8 1007.5 0.0
22/01:30am 16.0 10.6 6.4 53 4.7 ESE 24 30 13 16 1008.1 1007.9 0.0
22/01:00am 16.2 10.4 6.1 51 4.9 SE 26 30 14 16 1008.7 1008.5 0.0
22/12:30am 16.6 11.1 6.1 50 5.2 SE 24 32 13 17 1009.7 1009.5 0.0
22/12:00am 16.9 11.8 6.1 49 5.3 SE 22 28 12 15 1009.8 1009.6 0.0
 
Date/Time
CST
Temp
°C
App
Temp
°C
Dew
Point
°C
Rel
Hum
%
Delta-T
°C
Wind Press
QNH
hPa
Press
MSL
hPa
Rain since
9am
mm
Dir  Spd
km/h
Gust
km/h
Spd
kts
Gust
kts
21/11:30pm 17.7 12.4 5.0 43 6.2 SE 22 28 12 15 1010.2 1010.0 0.0
21/11:00pm 18.8 13.9 1.8 32 7.8 SE 17 22 9 12 1010.5 1010.3 0.0
21/10:30pm 19.6 14.6 -1.5 24 9.1 SSW 15 20 8 11 1010.4 1010.2 0.0
21/10:00pm 20.8 16.6 -3.6 19 10.2 SW 9 11 5 6 1010.0 1009.8 0.0
21/09:30pm 20.8 16.6 -3.6 19 10.2 SSW 9 13 5 7 1009.8 1009.6 0.0
21/09:00pm 21.7 17.2 -3.6 18 10.7 S 11 15 6 8 1009.4 1009.2 0.0
21/08:30pm 21.7 16.7 -4.4 17 10.8 S 13 19 7 10 1009.1 1008.9 0.0
21/08:00pm 22.2 16.4 -4.8 16 11.2 SSW 17 20 9 11 1008.7 1008.5 0.0
21/07:30pm 23.8 17.9 -5.3 14 12.1 SSW 17 20 9 11 1008.3 1008.1 0.0
21/07:00pm 24.5 18.7 -4.7 14 12.4 SSW 17 19 9 10 1007.9 1007.6 0.0
21/06:30pm 26.0 21.4 -4.5 13 13.2 SSW 11 13 6 7 1007.7 1007.4 0.0
21/06:00pm 27.8 23.5 -5.3 11 14.3 SSW 9 11 5 6 1007.4 1007.1 0.0
21/05:30pm 29.3 24.6 -5.4 10 15.2 SSW 11 15 6 8 1007.4 1007.1 0.0
21/05:00pm 29.8 25.0 -6.4 9 15.6 WNW 11 15 6 8 1007.5 1007.2 0.0
21/04:30pm 30.0 24.4 -6.3 9 15.7 WNW 15 22 8 12 1007.6 1007.3 0.0
21/04:00pm 30.7 25.2 -5.8 9 16.0 NW 15 24 8 13 1007.6 1007.3 0.0
21/03:30pm 30.8 24.9 -5.7 9 16.1 WNW 17 24 9 13 1007.7 1007.4 0.0
21/03:00pm 30.9 23.7 -5.6 9 16.1 NW 24 32 13 17 1008.0 1007.7 0.0
21/02:30pm 30.5 23.2 -5.9 9 15.9 NW 24 35 13 19 1008.3 1008.1 0.0
21/02:00pm 29.9 23.0 -6.4 9 15.6 NW 22 37 12 20 1008.7 1008.5 0.0
21/01:30pm 31.0 23.0 -5.5 9 16.1 NNW 28 41 15 22 1009.2 1009.0 0.0
21/01:00pm 29.9 21.5 -6.4 9 15.6 NW 30 39 16 21 1009.6 1009.4 0.0
21/12:30pm 30.5 22.0 -7.4 8 16.1 NW 30 44 16 24 1010.0 1009.8 0.0
21/12:04pm 29.8 21.6 -8.0 8 15.8 NNW 28 46 15 25 1010.6 1010.4 0.0
21/12:00pm 30.0 22.6 -7.8 8 15.9 N 24 37 13 20 1010.6 1010.4 0.0
21/11:30am 27.0 19.5 -8.5 9 14.3 NNW 24 30 13 16 1011.3 1011.0 0.0
21/11:00am 25.5 17.5 -9.7 9 13.7 N 26 37 14 20 1011.7 1011.4 0.0
21/10:30am 25.1 16.7 -10.0 9 13.5 N 28 37 15 20 1012.0 1011.7 0.0
21/10:00am 22.9 15.4 -9.1 11 12.3 N 24 32 13 17 1012.1 1011.8 0.0
21/09:30am 20.8 11.5 -9.6 12 11.3 N 33 41 18 22 1011.6 1011.3 0.0
21/09:00am 19.7 12.1 -9.5 13 10.7 N 24 35 13 19 1012.4 1012.1 0.0
21/08:30am 20.0 13.2 -9.2 13 10.8 N 20 32 11 17 1012.5 1012.2 0.0
21/08:00am 17.8 11.7 -8.3 16 9.6 N 17 20 9 11 1012.4 1012.1 0.0
21/07:30am 15.9 10.1 -8.4 18 8.7 NNE 15 19 8 10 1012.3 1012.0 0.0
21/07:00am 13.9 7.8 -8.0 21 7.7 NNE 17 20 9 11 1012.1 1011.8 0.0
21/06:30am 12.6 7.2 -8.0 23 7.2 NNE 13 15 7 8 1011.9 1011.6 0.0
21/06:00am 11.9 6.5 -8.0 24 6.9 NNE 13 15 7 8 1011.7 1011.4 0.0
21/05:30am 12.5 7.1 -8.0 23 7.1 NE 13 15 7 8 1011.6 1011.3 0.0
21/05:00am 13.0 7.2 -8.2 22 7.4 NE 15 17 8 9 1011.3 1011.0 0.0
21/04:30am 13.1 7.3 -8.7 21 7.5 NNE 15 17 8 9 1011.0 1010.8 0.0
21/04:00am 13.3 7.9 -8.5 21 7.6 NE 13 15 7 8 1011.0 1010.8 0.0
21/03:30am 13.5 7.3 -8.4 21 7.6 NNE 17 20 9 11 1010.9 1010.7 0.0
21/03:00am 12.2 6.4 -8.9 22 7.2 NNE 15 17 8 9 1011.3 1011.0 0.0
21/02:30am 12.3 6.5 -8.8 22 7.2 NE 15 17 8 9 1011.4 1011.1 0.0
21/02:00am 12.3 6.1 -8.8 22 7.2 NE 17 17 9 9 1011.8 1011.5 0.0

Other Formats:

Comma delimited format used in spreadsheet applications
http://www.bom.gov.au/fwo/IDS60801/IDS60801.94659.axf

JavaScript Object Notation format (JSON) in row-major order
http://www.bom.gov.au/fwo/IDS60801/IDS60801.94659.json